sensor_id;sensor_type;location;lat;lon;timestamp;P1;durP1;ratioP1;P2;durP2;ratioP2
15812;SDS011;8007;51.404;6.304;2022-10-22T00:00:26;11.03;;;6.63;;
15812;SDS011;8007;51.404;6.304;2022-10-22T00:02:29;10.97;;;7.40;;
15812;SDS011;8007;51.404;6.304;2022-10-22T00:04:32;9.80;;;6.50;;
15812;SDS011;8007;51.404;6.304;2022-10-22T00:06:34;11.47;;;6.97;;
15812;SDS011;8007;51.404;6.304;2022-10-22T00:08:36;10.97;;;7.07;;
15812;SDS011;8007;51.404;6.304;2022-10-22T00:10:39;8.67;;;6.33;;
15812;SDS011;8007;51.404;6.304;2022-10-22T00:12:41;10.00;;;7.10;;
15812;SDS011;8007;51.404;6.304;2022-10-22T00:14:43;12.80;;;6.60;;
15812;SDS011;8007;51.404;6.304;2022-10-22T00:16:45;10.60;;;6.80;;
15812;SDS011;8007;51.404;6.304;2022-10-22T00:18:47;11.77;;;6.87;;
15812;SDS011;8007;51.404;6.304;2022-10-22T00:20:51;11.37;;;6.97;;
15812;SDS011;8007;51.404;6.304;2022-10-22T00:22:53;12.60;;;7.07;;
15812;SDS011;8007;51.404;6.304;2022-10-22T00:24:55;10.13;;;6.70;;
15812;SDS011;8007;51.404;6.304;2022-10-22T00:26:57;10.43;;;6.53;;
15812;SDS011;8007;51.404;6.304;2022-10-22T00:28:59;11.13;;;6.53;;
15812;SDS011;8007;51.404;6.304;2022-10-22T00:31:02;9.80;;;6.63;;
15812;SDS011;8007;51.404;6.304;2022-10-22T00:33:04;8.33;;;6.03;;
15812;SDS011;8007;51.404;6.304;2022-10-22T00:35:07;10.50;;;7.00;;
15812;SDS011;8007;51.404;6.304;2022-10-22T00:37:11;9.20;;;6.40;;
15812;SDS011;8007;51.404;6.304;2022-10-22T00:39:18;9.93;;;5.90;;
15812;SDS011;8007;51.404;6.304;2022-10-22T00:41:20;11.70;;;6.77;;
15812;SDS011;8007;51.404;6.304;2022-10-22T00:43:22;8.57;;;7.00;;
15812;SDS011;8007;51.404;6.304;2022-10-22T00:45:25;9.17;;;5.80;;
15812;SDS011;8007;51.404;6.304;2022-10-22T00:47:28;9.60;;;6.47;;
15812;SDS011;8007;51.404;6.304;2022-10-22T00:49:32;10.20;;;6.13;;
15812;SDS011;8007;51.404;6.304;2022-10-22T00:51:34;9.30;;;6.20;;
15812;SDS011;8007;51.404;6.304;2022-10-22T00:53:38;9.00;;;6.10;;
15812;SDS011;8007;51.404;6.304;2022-10-22T00:55:41;10.67;;;8.00;;
15812;SDS011;8007;51.404;6.304;2022-10-22T00:57:44;8.23;;;6.20;;
15812;SDS011;8007;51.404;6.304;2022-10-22T00:59:47;8.03;;;5.87;;
15812;SDS011;8007;51.404;6.304;2022-10-22T01:01:49;9.20;;;6.10;;
15812;SDS011;8007;51.404;6.304;2022-10-22T01:03:52;10.37;;;6.30;;
15812;SDS011;8007;51.404;6.304;2022-10-22T01:05:54;8.83;;;6.10;;
15812;SDS011;8007;51.404;6.304;2022-10-22T01:07:59;9.37;;;6.13;;
15812;SDS011;8007;51.404;6.304;2022-10-22T01:10:04;8.13;;;5.80;;
15812;SDS011;8007;51.404;6.304;2022-10-22T01:12:11;9.77;;;5.97;;
15812;SDS011;8007;51.404;6.304;2022-10-22T01:14:16;10.57;;;6.00;;
15812;SDS011;8007;51.404;6.304;2022-10-22T01:16:21;7.47;;;5.90;;
15812;SDS011;8007;51.404;6.304;2022-10-22T01:18:28;15.73;;;5.97;;
15812;SDS011;8007;51.404;6.304;2022-10-22T01:20:38;10.97;;;6.50;;
15812;SDS011;8007;51.404;6.304;2022-10-22T01:22:50;8.77;;;6.50;;
15812;SDS011;8007;51.404;6.304;2022-10-22T01:24:56;11.17;;;6.40;;
15812;SDS011;8007;51.404;6.304;2022-10-22T01:27:06;13.77;;;6.50;;
15812;SDS011;8007;51.404;6.304;2022-10-22T01:29:15;9.57;;;6.30;;
15812;SDS011;8007;51.404;6.304;2022-10-22T01:31:19;10.67;;;6.10;;
15812;SDS011;8007;51.404;6.304;2022-10-22T01:33:22;9.83;;;6.60;;
15812;SDS011;8007;51.404;6.304;2022-10-22T01:35:26;10.67;;;6.30;;
15812;SDS011;8007;51.404;6.304;2022-10-22T01:37:30;9.77;;;6.33;;
15812;SDS011;8007;51.404;6.304;2022-10-22T01:39:32;8.60;;;6.60;;
15812;SDS011;8007;51.404;6.304;2022-10-22T01:41:35;11.63;;;6.53;;
15812;SDS011;8007;51.404;6.304;2022-10-22T01:43:40;12.60;;;7.00;;
15812;SDS011;8007;51.404;6.304;2022-10-22T01:45:45;11.67;;;6.90;;
15812;SDS011;8007;51.404;6.304;2022-10-22T01:47:50;10.33;;;6.43;;
15812;SDS011;8007;51.404;6.304;2022-10-22T01:52:14;11.63;;;6.40;;
15812;SDS011;8007;51.404;6.304;2022-10-22T01:54:28;9.33;;;6.43;;
15812;SDS011;8007;51.404;6.304;2022-10-22T01:56:45;11.30;;;6.87;;
15812;SDS011;8007;51.404;6.304;2022-10-22T01:58:57;11.40;;;6.83;;
15812;SDS011;8007;51.404;6.304;2022-10-22T02:01:06;11.40;;;7.13;;
15812;SDS011;8007;51.404;6.304;2022-10-22T02:03:13;18.90;;;8.13;;
15812;SDS011;8007;51.404;6.304;2022-10-22T02:05:18;12.20;;;7.40;;
15812;SDS011;8007;51.404;6.304;2022-10-22T02:07:22;9.97;;;6.90;;
15812;SDS011;8007;51.404;6.304;2022-10-22T02:09:27;14.83;;;7.17;;
15812;SDS011;8007;51.404;6.304;2022-10-22T02:11:31;10.60;;;7.67;;
15812;SDS011;8007;51.404;6.304;2022-10-22T02:13:34;14.17;;;7.10;;
15812;SDS011;8007;51.404;6.304;2022-10-22T02:15:37;11.63;;;6.83;;
15812;SDS011;8007;51.404;6.304;2022-10-22T02:17:42;11.20;;;6.60;;
15812;SDS011;8007;51.404;6.304;2022-10-22T02:19:46;12.33;;;6.77;;
15812;SDS011;8007;51.404;6.304;2022-10-22T02:21:49;11.70;;;7.83;;
15812;SDS011;8007;51.404;6.304;2022-10-22T02:23:51;14.93;;;6.97;;
15812;SDS011;8007;51.404;6.304;2022-10-22T02:25:55;15.33;;;7.43;;
15812;SDS011;8007;51.404;6.304;2022-10-22T02:28:00;11.10;;;7.13;;
15812;SDS011;8007;51.404;6.304;2022-10-22T02:30:03;14.70;;;7.00;;
15812;SDS011;8007;51.404;6.304;2022-10-22T02:32:07;11.87;;;7.37;;
15812;SDS011;8007;51.404;6.304;2022-10-22T02:34:12;10.70;;;7.47;;
15812;SDS011;8007;51.404;6.304;2022-10-22T02:36:15;10.30;;;6.80;;
15812;SDS011;8007;51.404;6.304;2022-10-22T02:38:17;12.50;;;7.17;;
15812;SDS011;8007;51.404;6.304;2022-10-22T02:40:20;13.37;;;6.87;;
15812;SDS011;8007;51.404;6.304;2022-10-22T02:42:23;11.20;;;7.67;;
15812;SDS011;8007;51.404;6.304;2022-10-22T02:44:25;14.87;;;8.97;;
15812;SDS011;8007;51.404;6.304;2022-10-22T02:46:28;11.57;;;7.60;;
15812;SDS011;8007;51.404;6.304;2022-10-22T02:48:30;14.37;;;7.77;;
15812;SDS011;8007;51.404;6.304;2022-10-22T02:50:33;13.87;;;7.27;;
15812;SDS011;8007;51.404;6.304;2022-10-22T02:52:35;13.03;;;7.40;;
15812;SDS011;8007;51.404;6.304;2022-10-22T02:54:38;12.47;;;7.90;;
15812;SDS011;8007;51.404;6.304;2022-10-22T02:56:40;13.47;;;8.27;;
15812;SDS011;8007;51.404;6.304;2022-10-22T02:58:42;15.77;;;7.63;;
15812;SDS011;8007;51.404;6.304;2022-10-22T03:00:45;17.43;;;8.93;;
15812;SDS011;8007;51.404;6.304;2022-10-22T03:02:47;12.30;;;8.20;;
15812;SDS011;8007;51.404;6.304;2022-10-22T03:04:53;21.13;;;9.90;;
15812;SDS011;8007;51.404;6.304;2022-10-22T03:06:56;16.23;;;8.60;;
15812;SDS011;8007;51.404;6.304;2022-10-22T03:08:58;20.90;;;8.83;;
15812;SDS011;8007;51.404;6.304;2022-10-22T03:11:00;16.03;;;8.90;;
15812;SDS011;8007;51.404;6.304;2022-10-22T03:13:03;14.83;;;9.40;;
15812;SDS011;8007;51.404;6.304;2022-10-22T03:15:05;20.83;;;8.87;;
15812;SDS011;8007;51.404;6.304;2022-10-22T03:17:07;15.43;;;8.83;;
15812;SDS011;8007;51.404;6.304;2022-10-22T03:19:10;18.27;;;9.33;;
15812;SDS011;8007;51.404;6.304;2022-10-22T03:21:12;16.17;;;8.83;;
15812;SDS011;8007;51.404;6.304;2022-10-22T03:23:20;18.87;;;9.43;;
15812;SDS011;8007;51.404;6.304;2022-10-22T03:25:23;16.20;;;9.13;;
15812;SDS011;8007;51.404;6.304;2022-10-22T03:27:27;16.20;;;9.73;;
15812;SDS011;8007;51.404;6.304;2022-10-22T03:29:30;16.67;;;9.50;;
15812;SDS011;8007;51.404;6.304;2022-10-22T03:31:33;19.37;;;9.93;;
15812;SDS011;8007;51.404;6.304;2022-10-22T03:33:35;17.03;;;9.83;;
15812;SDS011;8007;51.404;6.304;2022-10-22T03:35:38;18.93;;;9.77;;
15812;SDS011;8007;51.404;6.304;2022-10-22T03:37:43;17.50;;;10.10;;
15812;SDS011;8007;51.404;6.304;2022-10-22T03:39:46;21.10;;;10.10;;
15812;SDS011;8007;51.404;6.304;2022-10-22T03:41:49;16.57;;;9.33;;
15812;SDS011;8007;51.404;6.304;2022-10-22T03:43:52;16.93;;;9.67;;
15812;SDS011;8007;51.404;6.304;2022-10-22T03:45:57;17.30;;;9.70;;
15812;SDS011;8007;51.404;6.304;2022-10-22T03:47:59;20.93;;;8.97;;
15812;SDS011;8007;51.404;6.304;2022-10-22T03:50:02;18.57;;;10.03;;
15812;SDS011;8007;51.404;6.304;2022-10-22T03:52:04;17.70;;;10.20;;
15812;SDS011;8007;51.404;6.304;2022-10-22T03:54:07;19.33;;;10.60;;
15812;SDS011;8007;51.404;6.304;2022-10-22T03:56:10;21.53;;;10.33;;
15812;SDS011;8007;51.404;6.304;2022-10-22T03:58:13;22.30;;;10.50;;
15812;SDS011;8007;51.404;6.304;2022-10-22T04:00:15;21.53;;;10.27;;
15812;SDS011;8007;51.404;6.304;2022-10-22T04:02:17;17.67;;;10.23;;
15812;SDS011;8007;51.404;6.304;2022-10-22T04:04:20;20.13;;;10.50;;
15812;SDS011;8007;51.404;6.304;2022-10-22T04:06:22;19.63;;;10.33;;
15812;SDS011;8007;51.404;6.304;2022-10-22T04:08:25;17.43;;;10.63;;
15812;SDS011;8007;51.404;6.304;2022-10-22T04:10:27;24.37;;;10.60;;
15812;SDS011;8007;51.404;6.304;2022-10-22T04:12:30;20.23;;;11.07;;
15812;SDS011;8007;51.404;6.304;2022-10-22T04:14:32;18.70;;;10.93;;
15812;SDS011;8007;51.404;6.304;2022-10-22T04:16:34;32.27;;;12.80;;
15812;SDS011;8007;51.404;6.304;2022-10-22T04:18:40;18.73;;;10.20;;
15812;SDS011;8007;51.404;6.304;2022-10-22T04:20:43;16.83;;;10.93;;
15812;SDS011;8007;51.404;6.304;2022-10-22T04:22:45;22.77;;;11.23;;
15812;SDS011;8007;51.404;6.304;2022-10-22T04:24:47;18.70;;;10.70;;
15812;SDS011;8007;51.404;6.304;2022-10-22T04:26:49;22.23;;;11.23;;
15812;SDS011;8007;51.404;6.304;2022-10-22T04:28:53;23.70;;;11.10;;
15812;SDS011;8007;51.404;6.304;2022-10-22T04:30:55;18.77;;;10.03;;
15812;SDS011;8007;51.404;6.304;2022-10-22T04:32:57;21.60;;;10.93;;
15812;SDS011;8007;51.404;6.304;2022-10-22T04:34:59;20.47;;;11.33;;
15812;SDS011;8007;51.404;6.304;2022-10-22T04:37:01;20.37;;;10.57;;
15812;SDS011;8007;51.404;6.304;2022-10-22T04:39:05;19.33;;;10.80;;
15812;SDS011;8007;51.404;6.304;2022-10-22T04:41:08;21.37;;;11.90;;
15812;SDS011;8007;51.404;6.304;2022-10-22T04:43:10;18.47;;;10.23;;
15812;SDS011;8007;51.404;6.304;2022-10-22T04:45:14;22.80;;;10.33;;
15812;SDS011;8007;51.404;6.304;2022-10-22T04:47:16;21.50;;;10.77;;
15812;SDS011;8007;51.404;6.304;2022-10-22T04:49:18;19.17;;;10.43;;
15812;SDS011;8007;51.404;6.304;2022-10-22T04:51:21;18.20;;;10.90;;
15812;SDS011;8007;51.404;6.304;2022-10-22T04:53:23;22.50;;;11.20;;
15812;SDS011;8007;51.404;6.304;2022-10-22T04:55:25;26.20;;;10.47;;
15812;SDS011;8007;51.404;6.304;2022-10-22T04:57:29;18.63;;;10.73;;
15812;SDS011;8007;51.404;6.304;2022-10-22T04:59:31;21.97;;;11.33;;
15812;SDS011;8007;51.404;6.304;2022-10-22T05:01:36;20.40;;;10.70;;
15812;SDS011;8007;51.404;6.304;2022-10-22T05:03:41;18.30;;;9.83;;
15812;SDS011;8007;51.404;6.304;2022-10-22T05:05:43;21.20;;;10.03;;
15812;SDS011;8007;51.404;6.304;2022-10-22T05:07:45;20.20;;;10.43;;
15812;SDS011;8007;51.404;6.304;2022-10-22T05:09:47;19.87;;;10.20;;
15812;SDS011;8007;51.404;6.304;2022-10-22T05:11:50;19.17;;;10.17;;
15812;SDS011;8007;51.404;6.304;2022-10-22T05:13:54;21.17;;;9.30;;
15812;SDS011;8007;51.404;6.304;2022-10-22T05:15:59;15.77;;;8.40;;
15812;SDS011;8007;51.404;6.304;2022-10-22T05:18:03;20.77;;;9.77;;
15812;SDS011;8007;51.404;6.304;2022-10-22T05:20:05;16.03;;;8.93;;
15812;SDS011;8007;51.404;6.304;2022-10-22T05:22:08;21.93;;;9.57;;
15812;SDS011;8007;51.404;6.304;2022-10-22T05:24:10;17.00;;;8.87;;
15812;SDS011;8007;51.404;6.304;2022-10-22T05:26:13;15.03;;;9.03;;
15812;SDS011;8007;51.404;6.304;2022-10-22T05:28:15;19.80;;;9.00;;
15812;SDS011;8007;51.404;6.304;2022-10-22T05:30:17;21.13;;;8.67;;
15812;SDS011;8007;51.404;6.304;2022-10-22T05:32:20;18.10;;;8.07;;
15812;SDS011;8007;51.404;6.304;2022-10-22T05:34:23;13.97;;;8.07;;
15812;SDS011;8007;51.404;6.304;2022-10-22T05:36:25;13.10;;;7.87;;
15812;SDS011;8007;51.404;6.304;2022-10-22T05:38:34;13.27;;;8.17;;
15812;SDS011;8007;51.404;6.304;2022-10-22T05:40:36;20.10;;;8.03;;
15812;SDS011;8007;51.404;6.304;2022-10-22T05:42:38;11.80;;;8.30;;
15812;SDS011;8007;51.404;6.304;2022-10-22T05:44:40;15.90;;;7.57;;
15812;SDS011;8007;51.404;6.304;2022-10-22T05:46:42;14.73;;;7.63;;
15812;SDS011;8007;51.404;6.304;2022-10-22T05:48:47;14.90;;;8.00;;
15812;SDS011;8007;51.404;6.304;2022-10-22T05:50:51;15.47;;;7.93;;
15812;SDS011;8007;51.404;6.304;2022-10-22T05:52:53;17.07;;;7.67;;
15812;SDS011;8007;51.404;6.304;2022-10-22T05:54:55;16.07;;;8.03;;
15812;SDS011;8007;51.404;6.304;2022-10-22T05:56:57;20.37;;;8.37;;
15812;SDS011;8007;51.404;6.304;2022-10-22T05:59:03;15.63;;;7.50;;
15812;SDS011;8007;51.404;6.304;2022-10-22T06:01:06;12.87;;;7.30;;
15812;SDS011;8007;51.404;6.304;2022-10-22T06:03:08;18.60;;;7.67;;
15812;SDS011;8007;51.404;6.304;2022-10-22T06:05:11;15.23;;;6.83;;
15812;SDS011;8007;51.404;6.304;2022-10-22T06:07:14;12.73;;;7.17;;
15812;SDS011;8007;51.404;6.304;2022-10-22T06:09:17;12.43;;;6.97;;
15812;SDS011;8007;51.404;6.304;2022-10-22T06:11:21;9.83;;;6.27;;
15812;SDS011;8007;51.404;6.304;2022-10-22T06:13:28;17.77;;;7.13;;
15812;SDS011;8007;51.404;6.304;2022-10-22T06:15:31;14.73;;;6.97;;
15812;SDS011;8007;51.404;6.304;2022-10-22T06:17:36;15.83;;;6.77;;
15812;SDS011;8007;51.404;6.304;2022-10-22T06:19:39;17.43;;;6.70;;
15812;SDS011;8007;51.404;6.304;2022-10-22T06:21:41;12.53;;;6.70;;
15812;SDS011;8007;51.404;6.304;2022-10-22T06:23:44;13.33;;;6.00;;
15812;SDS011;8007;51.404;6.304;2022-10-22T06:25:54;11.40;;;5.87;;
15812;SDS011;8007;51.404;6.304;2022-10-22T06:27:57;9.40;;;6.53;;
15812;SDS011;8007;51.404;6.304;2022-10-22T06:29:59;9.87;;;5.80;;
15812;SDS011;8007;51.404;6.304;2022-10-22T06:32:01;15.30;;;5.73;;
15812;SDS011;8007;51.404;6.304;2022-10-22T06:34:03;12.03;;;6.20;;
15812;SDS011;8007;51.404;6.304;2022-10-22T06:36:09;12.67;;;5.67;;
15812;SDS011;8007;51.404;6.304;2022-10-22T06:38:11;13.97;;;5.50;;
15812;SDS011;8007;51.404;6.304;2022-10-22T06:40:17;22.93;;;5.93;;
15812;SDS011;8007;51.404;6.304;2022-10-22T06:42:19;19.97;;;6.10;;
15812;SDS011;8007;51.404;6.304;2022-10-22T06:44:22;38.53;;;7.17;;
15812;SDS011;8007;51.404;6.304;2022-10-22T06:46:24;25.43;;;5.67;;
15812;SDS011;8007;51.404;6.304;2022-10-22T06:48:27;20.63;;;6.17;;
15812;SDS011;8007;51.404;6.304;2022-10-22T06:50:29;21.37;;;5.63;;
15812;SDS011;8007;51.404;6.304;2022-10-22T06:52:31;17.43;;;4.30;;
15812;SDS011;8007;51.404;6.304;2022-10-22T06:54:33;30.13;;;5.53;;
15812;SDS011;8007;51.404;6.304;2022-10-22T06:56:36;17.83;;;4.70;;
15812;SDS011;8007;51.404;6.304;2022-10-22T06:58:39;19.27;;;4.80;;
15812;SDS011;8007;51.404;6.304;2022-10-22T07:00:41;17.10;;;4.70;;
15812;SDS011;8007;51.404;6.304;2022-10-22T07:02:43;12.53;;;3.83;;
15812;SDS011;8007;51.404;6.304;2022-10-22T07:04:46;11.93;;;4.17;;
15812;SDS011;8007;51.404;6.304;2022-10-22T07:06:48;8.07;;;3.37;;
15812;SDS011;8007;51.404;6.304;2022-10-22T07:08:50;10.43;;;3.30;;
15812;SDS011;8007;51.404;6.304;2022-10-22T07:10:52;7.77;;;3.90;;
15812;SDS011;8007;51.404;6.304;2022-10-22T07:12:56;8.03;;;3.30;;
15812;SDS011;8007;51.404;6.304;2022-10-22T07:14:58;9.30;;;3.33;;
15812;SDS011;8007;51.404;6.304;2022-10-22T07:17:00;4.17;;;3.10;;
15812;SDS011;8007;51.404;6.304;2022-10-22T07:19:03;8.67;;;3.23;;
15812;SDS011;8007;51.404;6.304;2022-10-22T07:21:06;7.73;;;3.40;;
15812;SDS011;8007;51.404;6.304;2022-10-22T07:23:08;9.53;;;3.20;;
15812;SDS011;8007;51.404;6.304;2022-10-22T07:25:10;8.80;;;3.20;;
15812;SDS011;8007;51.404;6.304;2022-10-22T07:27:12;7.63;;;2.93;;
15812;SDS011;8007;51.404;6.304;2022-10-22T07:29:16;7.70;;;2.90;;
15812;SDS011;8007;51.404;6.304;2022-10-22T07:31:18;6.00;;;3.00;;
15812;SDS011;8007;51.404;6.304;2022-10-22T07:33:23;6.53;;;3.10;;
15812;SDS011;8007;51.404;6.304;2022-10-22T07:35:25;9.77;;;2.97;;
15812;SDS011;8007;51.404;6.304;2022-10-22T07:37:27;6.07;;;3.10;;
15812;SDS011;8007;51.404;6.304;2022-10-22T07:39:30;8.23;;;3.10;;
15812;SDS011;8007;51.404;6.304;2022-10-22T07:41:32;7.77;;;3.70;;
15812;SDS011;8007;51.404;6.304;2022-10-22T07:43:34;8.30;;;3.17;;
15812;SDS011;8007;51.404;6.304;2022-10-22T07:45:37;14.17;;;3.63;;
15812;SDS011;8007;51.404;6.304;2022-10-22T07:47:40;11.10;;;5.53;;
15812;SDS011;8007;51.404;6.304;2022-10-22T07:49:43;12.37;;;5.70;;
15812;SDS011;8007;51.404;6.304;2022-10-22T07:51:47;15.97;;;6.60;;
15812;SDS011;8007;51.404;6.304;2022-10-22T07:53:50;12.73;;;5.10;;
15812;SDS011;8007;51.404;6.304;2022-10-22T07:55:52;11.33;;;3.60;;
15812;SDS011;8007;51.404;6.304;2022-10-22T07:57:54;7.17;;;3.30;;
15812;SDS011;8007;51.404;6.304;2022-10-22T07:59:56;6.50;;;2.73;;
15812;SDS011;8007;51.404;6.304;2022-10-22T08:02:03;8.23;;;2.60;;
15812;SDS011;8007;51.404;6.304;2022-10-22T08:04:08;10.13;;;3.73;;
15812;SDS011;8007;51.404;6.304;2022-10-22T08:06:11;20.20;;;11.90;;
15812;SDS011;8007;51.404;6.304;2022-10-22T08:08:15;16.03;;;5.83;;
15812;SDS011;8007;51.404;6.304;2022-10-22T08:10:17;14.33;;;4.20;;
15812;SDS011;8007;51.404;6.304;2022-10-22T08:12:19;10.17;;;2.83;;
15812;SDS011;8007;51.404;6.304;2022-10-22T08:14:21;7.27;;;3.00;;
15812;SDS011;8007;51.404;6.304;2022-10-22T08:16:24;9.43;;;3.03;;
15812;SDS011;8007;51.404;6.304;2022-10-22T08:18:27;6.13;;;2.50;;
15812;SDS011;8007;51.404;6.304;2022-10-22T08:20:30;8.07;;;3.20;;
15812;SDS011;8007;51.404;6.304;2022-10-22T08:22:32;8.40;;;2.33;;
15812;SDS011;8007;51.404;6.304;2022-10-22T08:24:34;6.73;;;2.40;;
15812;SDS011;8007;51.404;6.304;2022-10-22T08:26:36;5.97;;;2.53;;
15812;SDS011;8007;51.404;6.304;2022-10-22T08:28:38;12.57;;;2.47;;
15812;SDS011;8007;51.404;6.304;2022-10-22T08:30:41;6.10;;;2.40;;
15812;SDS011;8007;51.404;6.304;2022-10-22T08:32:45;6.23;;;2.33;;
15812;SDS011;8007;51.404;6.304;2022-10-22T08:34:48;8.70;;;2.23;;
15812;SDS011;8007;51.404;6.304;2022-10-22T08:36:51;2.70;;;2.23;;
15812;SDS011;8007;51.404;6.304;2022-10-22T08:38:53;6.87;;;3.30;;
15812;SDS011;8007;51.404;6.304;2022-10-22T08:40:59;7.57;;;2.30;;
15812;SDS011;8007;51.404;6.304;2022-10-22T08:43:25;5.57;;;3.10;;
15812;SDS011;8007;51.404;6.304;2022-10-22T08:45:29;3.63;;;1.70;;
15812;SDS011;8007;51.404;6.304;2022-10-22T08:47:42;6.33;;;1.80;;
15812;SDS011;8007;51.404;6.304;2022-10-22T08:49:48;8.37;;;1.97;;
15812;SDS011;8007;51.404;6.304;2022-10-22T08:51:51;7.57;;;1.90;;
15812;SDS011;8007;51.404;6.304;2022-10-22T08:54:01;7.93;;;2.10;;
15812;SDS011;8007;51.404;6.304;2022-10-22T08:56:07;9.67;;;1.80;;
15812;SDS011;8007;51.404;6.304;2022-10-22T08:58:11;6.87;;;1.70;;
15812;SDS011;8007;51.404;6.304;2022-10-22T09:00:19;5.90;;;1.90;;
15812;SDS011;8007;51.404;6.304;2022-10-22T09:02:32;7.90;;;1.97;;
15812;SDS011;8007;51.404;6.304;2022-10-22T09:04:38;10.20;;;3.17;;
15812;SDS011;8007;51.404;6.304;2022-10-22T09:06:43;7.93;;;2.20;;
15812;SDS011;8007;51.404;6.304;2022-10-22T09:08:46;5.73;;;2.00;;
15812;SDS011;8007;51.404;6.304;2022-10-22T09:10:49;8.37;;;3.37;;
15812;SDS011;8007;51.404;6.304;2022-10-22T09:12:52;7.87;;;3.80;;
15812;SDS011;8007;51.404;6.304;2022-10-22T09:14:54;7.73;;;2.93;;
15812;SDS011;8007;51.404;6.304;2022-10-22T09:17:11;8.17;;;2.57;;
15812;SDS011;8007;51.404;6.304;2022-10-22T09:19:17;6.63;;;2.10;;
15812;SDS011;8007;51.404;6.304;2022-10-22T09:21:47;5.47;;;2.00;;
15812;SDS011;8007;51.404;6.304;2022-10-22T09:23:57;6.80;;;2.50;;
15812;SDS011;8007;51.404;6.304;2022-10-22T09:26:03;5.50;;;1.77;;
15812;SDS011;8007;51.404;6.304;2022-10-22T09:28:07;6.00;;;1.50;;
15812;SDS011;8007;51.404;6.304;2022-10-22T09:30:10;4.07;;;1.97;;
15812;SDS011;8007;51.404;6.304;2022-10-22T09:32:15;6.70;;;1.90;;
15812;SDS011;8007;51.404;6.304;2022-10-22T09:34:19;5.10;;;1.40;;
15812;SDS011;8007;51.404;6.304;2022-10-22T09:36:22;5.47;;;1.97;;
15812;SDS011;8007;51.404;6.304;2022-10-22T09:38:26;4.57;;;1.60;;
15812;SDS011;8007;51.404;6.304;2022-10-22T09:40:29;3.60;;;1.97;;
15812;SDS011;8007;51.404;6.304;2022-10-22T09:42:31;6.83;;;1.80;;
15812;SDS011;8007;51.404;6.304;2022-10-22T09:44:35;4.97;;;1.70;;
15812;SDS011;8007;51.404;6.304;2022-10-22T09:46:37;11.83;;;2.20;;
15812;SDS011;8007;51.404;6.304;2022-10-22T09:48:43;3.67;;;1.60;;
15812;SDS011;8007;51.404;6.304;2022-10-22T09:50:48;3.03;;;1.50;;
15812;SDS011;8007;51.404;6.304;2022-10-22T09:52:58;3.53;;;1.77;;
15812;SDS011;8007;51.404;6.304;2022-10-22T09:55:01;6.27;;;1.90;;
15812;SDS011;8007;51.404;6.304;2022-10-22T09:57:12;6.27;;;2.57;;
15812;SDS011;8007;51.404;6.304;2022-10-22T09:59:17;8.80;;;2.10;;
15812;SDS011;8007;51.404;6.304;2022-10-22T10:01:21;5.80;;;1.80;;
15812;SDS011;8007;51.404;6.304;2022-10-22T10:03:28;4.53;;;1.53;;
15812;SDS011;8007;51.404;6.304;2022-10-22T10:05:32;3.87;;;1.37;;
15812;SDS011;8007;51.404;6.304;2022-10-22T10:07:36;4.40;;;1.30;;
15812;SDS011;8007;51.404;6.304;2022-10-22T10:09:38;3.93;;;1.50;;
15812;SDS011;8007;51.404;6.304;2022-10-22T10:11:42;8.40;;;1.87;;
15812;SDS011;8007;51.404;6.304;2022-10-22T10:13:48;4.10;;;1.50;;
15812;SDS011;8007;51.404;6.304;2022-10-22T10:15:54;7.13;;;1.60;;
15812;SDS011;8007;51.404;6.304;2022-10-22T10:17:59;3.80;;;1.20;;
15812;SDS011;8007;51.404;6.304;2022-10-22T10:20:08;3.30;;;1.50;;
15812;SDS011;8007;51.404;6.304;2022-10-22T10:22:18;4.77;;;1.50;;
15812;SDS011;8007;51.404;6.304;2022-10-22T10:24:25;7.60;;;1.57;;
15812;SDS011;8007;51.404;6.304;2022-10-22T10:26:33;6.60;;;1.43;;
15812;SDS011;8007;51.404;6.304;2022-10-22T10:28:42;6.43;;;2.00;;
15812;SDS011;8007;51.404;6.304;2022-10-22T10:30:53;5.37;;;1.37;;
15812;SDS011;8007;51.404;6.304;2022-10-22T10:33:04;6.40;;;1.37;;
15812;SDS011;8007;51.404;6.304;2022-10-22T10:35:13;8.20;;;1.50;;
15812;SDS011;8007;51.404;6.304;2022-10-22T10:37:18;3.00;;;1.30;;
15812;SDS011;8007;51.404;6.304;2022-10-22T10:39:22;7.07;;;1.20;;
15812;SDS011;8007;51.404;6.304;2022-10-22T10:41:27;4.03;;;2.00;;
15812;SDS011;8007;51.404;6.304;2022-10-22T10:43:34;4.27;;;1.37;;
15812;SDS011;8007;51.404;6.304;2022-10-22T10:45:40;2.43;;;1.10;;
15812;SDS011;8007;51.404;6.304;2022-10-22T10:50:13;6.70;;;1.57;;
15812;SDS011;8007;51.404;6.304;2022-10-22T10:52:19;5.00;;;1.23;;
15812;SDS011;8007;51.404;6.304;2022-10-22T10:54:25;5.23;;;1.30;;
15812;SDS011;8007;51.404;6.304;2022-10-22T10:56:32;4.73;;;1.40;;
15812;SDS011;8007;51.404;6.304;2022-10-22T10:58:38;6.63;;;1.23;;
15812;SDS011;8007;51.404;6.304;2022-10-22T11:00:44;5.70;;;1.37;;
15812;SDS011;8007;51.404;6.304;2022-10-22T11:05:20;4.20;;;1.30;;
15812;SDS011;8007;51.404;6.304;2022-10-22T11:07:27;2.93;;;1.03;;
15812;SDS011;8007;51.404;6.304;2022-10-22T11:09:33;3.93;;;0.97;;
15812;SDS011;8007;51.404;6.304;2022-10-22T11:11:38;4.43;;;1.30;;
15812;SDS011;8007;51.404;6.304;2022-10-22T11:13:43;6.67;;;1.50;;
15812;SDS011;8007;51.404;6.304;2022-10-22T11:15:49;3.90;;;1.40;;
15812;SDS011;8007;51.404;6.304;2022-10-22T11:18:01;2.03;;;1.10;;
15812;SDS011;8007;51.404;6.304;2022-10-22T11:20:11;2.03;;;1.40;;
15812;SDS011;8007;51.404;6.304;2022-10-22T11:22:18;5.70;;;1.50;;
15812;SDS011;8007;51.404;6.304;2022-10-22T11:24:22;5.20;;;0.93;;
15812;SDS011;8007;51.404;6.304;2022-10-22T11:26:28;3.73;;;1.47;;
15812;SDS011;8007;51.404;6.304;2022-10-22T11:28:33;6.87;;;1.27;;
15812;SDS011;8007;51.404;6.304;2022-10-22T11:30:42;4.60;;;1.10;;
15812;SDS011;8007;51.404;6.304;2022-10-22T11:32:46;7.10;;;1.60;;
15812;SDS011;8007;51.404;6.304;2022-10-22T11:34:49;4.50;;;1.60;;
15812;SDS011;8007;51.404;6.304;2022-10-22T11:36:53;5.27;;;1.50;;
15812;SDS011;8007;51.404;6.304;2022-10-22T11:38:57;4.17;;;1.20;;
15812;SDS011;8007;51.404;6.304;2022-10-22T11:41:00;6.03;;;1.73;;
15812;SDS011;8007;51.404;6.304;2022-10-22T11:43:03;4.40;;;1.37;;
15812;SDS011;8007;51.404;6.304;2022-10-22T11:45:22;7.00;;;1.63;;
15812;SDS011;8007;51.404;6.304;2022-10-22T11:47:30;5.40;;;1.20;;
15812;SDS011;8007;51.404;6.304;2022-10-22T11:49:40;4.77;;;1.30;;
15812;SDS011;8007;51.404;6.304;2022-10-22T11:51:43;4.60;;;1.10;;
15812;SDS011;8007;51.404;6.304;2022-10-22T11:53:46;5.40;;;1.30;;
15812;SDS011;8007;51.404;6.304;2022-10-22T11:55:57;2.50;;;1.10;;
15812;SDS011;8007;51.404;6.304;2022-10-22T11:58:09;7.77;;;1.53;;
15812;SDS011;8007;51.404;6.304;2022-10-22T12:00:33;2.97;;;1.17;;
15812;SDS011;8007;51.404;6.304;2022-10-22T12:04:47;3.00;;;1.03;;
15812;SDS011;8007;51.404;6.304;2022-10-22T12:06:53;5.07;;;1.30;;
15812;SDS011;8007;51.404;6.304;2022-10-22T12:08:57;5.90;;;1.10;;
15812;SDS011;8007;51.404;6.304;2022-10-22T12:11:04;3.37;;;1.30;;
15812;SDS011;8007;51.404;6.304;2022-10-22T12:13:10;5.23;;;1.30;;
15812;SDS011;8007;51.404;6.304;2022-10-22T12:15:20;4.40;;;2.60;;
15812;SDS011;8007;51.404;6.304;2022-10-22T12:17:24;6.10;;;3.00;;
15812;SDS011;8007;51.404;6.304;2022-10-22T12:19:28;7.50;;;4.33;;
15812;SDS011;8007;51.404;6.304;2022-10-22T12:21:31;7.73;;;2.67;;
15812;SDS011;8007;51.404;6.304;2022-10-22T12:23:34;6.77;;;1.50;;
15812;SDS011;8007;51.404;6.304;2022-10-22T12:25:37;8.13;;;3.77;;
15812;SDS011;8007;51.404;6.304;2022-10-22T12:27:40;8.67;;;4.57;;
15812;SDS011;8007;51.404;6.304;2022-10-22T12:29:52;11.47;;;5.70;;
15812;SDS011;8007;51.404;6.304;2022-10-22T12:32:00;10.90;;;5.63;;
15812;SDS011;8007;51.404;6.304;2022-10-22T12:34:03;12.37;;;6.67;;
15812;SDS011;8007;51.404;6.304;2022-10-22T12:36:05;23.87;;;13.73;;
15812;SDS011;8007;51.404;6.304;2022-10-22T12:38:11;4.57;;;2.37;;
15812;SDS011;8007;51.404;6.304;2022-10-22T12:40:18;4.60;;;2.43;;
15812;SDS011;8007;51.404;6.304;2022-10-22T12:42:21;4.57;;;1.73;;